RYR40DF EGGW-EPGD
Flight info
| Callsign | RYR40DF |
|---|---|
| Flight time | 2h 7m |
| Altitude | 37000 |
| Route | MATC2C MATCH Q295 SOMVA MAVAS MALYK LUWIL BINKA LUXAL L730 KOSEX KOSE5T |
| Aircraft | B38M/M-SDE1E2E3FGHIJ2J3J4J5M1RWXYZ/HB1 |
Departure
| Time | 2026-05-07 13:34 |
|---|---|
| Airport | London Luton Airport (EGGW) |
Arrival
| Time | 2026-05-07 15:42 |
|---|---|
| Airport | Gdańsk Lech Wałęsa Airport (EPGD) |
| Time | Latitude | Longitude | Altitude | Speed | Heading |
|---|---|---|---|---|---|
| 2026-05-07 13:02 | 51.87979 | -0.37267 | 522 ft | 0 kts | 162° |
| 2026-05-07 13:25 | 51.87985 | -0.37271 | 521 ft | 2 kts | 162° |
| 2026-05-07 13:25 | 51.88000 | -0.37278 | 521 ft | 2 kts | 161° |
| 2026-05-07 13:25 | 51.88014 | -0.37286 | 521 ft | 1 kts | 162° |
| 2026-05-07 13:25 | 51.88023 | -0.37297 | 521 ft | 1 kts | 104° |
| 2026-05-07 13:26 | 51.88021 | -0.37316 | 521 ft | 2 kts | 61° |
| 2026-05-07 13:26 | 51.88015 | -0.37339 | 522 ft | 2 kts | 75° |
| 2026-05-07 13:26 | 51.88013 | -0.37355 | 522 ft | 0 kts | 71° |
| 2026-05-07 13:26 | 51.88012 | -0.37355 | 522 ft | 0 kts | 71° |
| 2026-05-07 13:29 | 51.88015 | -0.37345 | 522 ft | 4 kts | 71° |
| 2026-05-07 13:29 | 51.88040 | -0.37218 | 519 ft | 15 kts | 72° |
| 2026-05-07 13:29 | 51.87995 | -0.37117 | 519 ft | 11 kts | 159° |
| 2026-05-07 13:30 | 51.87911 | -0.37071 | 520 ft | 16 kts | 162° |
| 2026-05-07 13:30 | 51.87800 | -0.37010 | 523 ft | 15 kts | 163° |
| 2026-05-07 13:30 | 51.87693 | -0.36955 | 526 ft | 16 kts | 162° |
| 2026-05-07 13:30 | 51.87625 | -0.37004 | 529 ft | 11 kts | 254° |
| 2026-05-07 13:31 | 51.87597 | -0.37155 | 530 ft | 15 kts | 256° |
| 2026-05-07 13:31 | 51.87577 | -0.37316 | 530 ft | 13 kts | 276° |
| 2026-05-07 13:31 | 51.87554 | -0.37459 | 531 ft | 17 kts | 207° |
| 2026-05-07 13:31 | 51.87513 | -0.37503 | 531 ft | 3 kts | 246° |
| 2026-05-07 13:32 | 51.87485 | -0.37655 | 532 ft | 24 kts | 255° |
| 2026-05-07 13:32 | 51.87441 | -0.37912 | 525 ft | 26 kts | 254° |
| 2026-05-07 13:32 | 51.87369 | -0.38061 | 519 ft | 5 kts | 206° |
| 2026-05-07 13:32 | 51.87325 | -0.38096 | 516 ft | 8 kts | 205° |
| 2026-05-07 13:33 | 51.87269 | -0.38087 | 515 ft | 8 kts | 136° |
| 2026-05-07 13:33 | 51.87260 | -0.38024 | 519 ft | 2 kts | 74° |
| 2026-05-07 13:33 | 51.87261 | -0.38017 | 519 ft | 0 kts | 75° |
| 2026-05-07 13:34 | 51.87297 | -0.37813 | 528 ft | 57 kts | 75° |
| 2026-05-07 13:34 | 51.87766 | -0.35123 | 680 ft | 174 kts | 74° |
| 2026-05-07 13:34 | 51.88088 | -0.33368 | 1764 ft | 163 kts | 75° |
| 2026-05-07 13:35 | 51.88396 | -0.31555 | 2414 ft | 174 kts | 77° |
| 2026-05-07 13:35 | 51.88714 | -0.29600 | 2924 ft | 188 kts | 76° |
| 2026-05-07 13:35 | 51.89067 | -0.27488 | 3416 ft | 202 kts | 76° |
| 2026-05-07 13:35 | 51.89456 | -0.25212 | 3872 ft | 218 kts | 75° |
| 2026-05-07 13:36 | 51.89687 | -0.22732 | 4286 ft | 233 kts | 96° |
| 2026-05-07 13:36 | 51.89081 | -0.20256 | 4775 ft | 246 kts | 129° |
| 2026-05-07 13:36 | 51.87784 | -0.18454 | 4983 ft | 255 kts | 152° |
| 2026-05-07 13:36 | 51.86212 | -0.17533 | 4980 ft | 260 kts | 169° |
| 2026-05-07 13:37 | 51.84294 | -0.17158 | 4972 ft | 263 kts | 171° |
| 2026-05-07 13:37 | 51.82530 | -0.16382 | 4970 ft | 262 kts | 158° |
| 2026-05-07 13:37 | 51.80896 | -0.15170 | 4968 ft | 262 kts | 154° |
| 2026-05-07 13:37 | 51.79250 | -0.13854 | 4967 ft | 262 kts | 154° |
| 2026-05-07 13:38 | 51.77631 | -0.12492 | 4968 ft | 263 kts | 148° |
| 2026-05-07 13:38 | 51.76245 | -0.10620 | 4961 ft | 262 kts | 128° |
| 2026-05-07 13:38 | 51.75353 | -0.08000 | 5201 ft | 277 kts | 117° |
| 2026-05-07 13:38 | 51.74453 | -0.05382 | 6371 ft | 268 kts | 122° |
| 2026-05-07 13:39 | 51.73483 | -0.02825 | 7199 ft | 272 kts | 122° |
| 2026-05-07 13:39 | 51.72520 | -0.00189 | 8057 ft | 276 kts | 120° |
| 2026-05-07 13:39 | 51.71725 | 0.02638 | 8841 ft | 281 kts | 103° |
| 2026-05-07 13:39 | 51.71721 | 0.05629 | 9606 ft | 286 kts | 78° |
| 2026-05-07 13:40 | 51.72281 | 0.08714 | 10368 ft | 291 kts | 71° |
| 2026-05-07 13:40 | 51.72964 | 0.11813 | 10842 ft | 307 kts | 71° |
| 2026-05-07 13:40 | 51.73669 | 0.15164 | 11270 ft | 322 kts | 72° |
| 2026-05-07 13:40 | 51.74355 | 0.18681 | 11664 ft | 338 kts | 73° |
| 2026-05-07 13:41 | 51.75038 | 0.22353 | 12322 ft | 344 kts | 74° |
| 2026-05-07 13:41 | 51.75715 | 0.26076 | 13042 ft | 348 kts | 74° |
| 2026-05-07 13:41 | 51.76386 | 0.29788 | 13720 ft | 352 kts | 74° |
| 2026-05-07 13:41 | 51.77076 | 0.33602 | 14404 ft | 356 kts | 74° |
| 2026-05-07 13:42 | 51.77776 | 0.37471 | 15080 ft | 360 kts | 74° |
| 2026-05-07 13:42 | 51.78472 | 0.41318 | 15736 ft | 364 kts | 74° |
| 2026-05-07 13:42 | 51.79185 | 0.45262 | 16409 ft | 368 kts | 73° |
| 2026-05-07 13:42 | 51.79899 | 0.49215 | 17033 ft | 372 kts | 73° |
| 2026-05-07 13:43 | 51.80622 | 0.53225 | 17646 ft | 376 kts | 73° |
| 2026-05-07 13:43 | 51.81359 | 0.57325 | 18021 ft | 381 kts | 73° |
| 2026-05-07 13:43 | 51.82095 | 0.61429 | 18292 ft | 388 kts | 73° |
| 2026-05-07 13:43 | 51.82832 | 0.65545 | 19172 ft | 383 kts | 75° |
| 2026-05-07 13:44 | 51.83579 | 0.69733 | 19722 ft | 388 kts | 75° |
| 2026-05-07 13:44 | 51.84318 | 0.73879 | 20291 ft | 391 kts | 75° |
| 2026-05-07 13:44 | 51.85069 | 0.78103 | 20836 ft | 395 kts | 74° |
| 2026-05-07 13:44 | 51.85832 | 0.82407 | 21372 ft | 398 kts | 74° |
| 2026-05-07 13:45 | 51.86647 | 0.86641 | 21894 ft | 401 kts | 71° |
| 2026-05-07 13:45 | 51.87628 | 0.90888 | 22406 ft | 405 kts | 69° |
| 2026-05-07 13:45 | 51.88697 | 0.95099 | 22894 ft | 408 kts | 67° |
| 2026-05-07 13:45 | 51.89810 | 0.99329 | 23368 ft | 412 kts | 67° |
| 2026-05-07 13:46 | 51.90936 | 1.03584 | 23844 ft | 415 kts | 67° |
| 2026-05-07 13:46 | 51.92064 | 1.07871 | 24380 ft | 416 kts | 67° |
| 2026-05-07 13:46 | 51.93183 | 1.12164 | 24879 ft | 418 kts | 68° |
| 2026-05-07 13:46 | 51.94299 | 1.16480 | 25383 ft | 420 kts | 68° |
| 2026-05-07 13:47 | 51.95418 | 1.20840 | 25854 ft | 422 kts | 68° |
| 2026-05-07 13:47 | 51.96534 | 1.25211 | 26304 ft | 424 kts | 68° |
| 2026-05-07 13:47 | 51.97659 | 1.29637 | 26727 ft | 426 kts | 68° |
| 2026-05-07 13:47 | 51.98782 | 1.34072 | 27157 ft | 429 kts | 68° |
| 2026-05-07 13:48 | 51.99912 | 1.38549 | 27582 ft | 431 kts | 68° |
| 2026-05-07 13:48 | 52.01039 | 1.43028 | 28000 ft | 432 kts | 68° |
| 2026-05-07 13:48 | 52.02174 | 1.47542 | 28388 ft | 435 kts | 68° |
| 2026-05-07 13:48 | 52.03316 | 1.52101 | 28799 ft | 436 kts | 68° |
| 2026-05-07 13:49 | 52.04453 | 1.56642 | 29245 ft | 437 kts | 68° |
| 2026-05-07 13:49 | 52.05592 | 1.61205 | 29568 ft | 440 kts | 68° |
| 2026-05-07 13:49 | 52.06739 | 1.65810 | 29940 ft | 442 kts | 69° |
| 2026-05-07 13:49 | 52.07880 | 1.70403 | 30275 ft | 444 kts | 69° |
| 2026-05-07 13:50 | 52.09063 | 1.75168 | 30650 ft | 446 kts | 69° |
| 2026-05-07 13:50 | 52.10210 | 1.79802 | 31017 ft | 447 kts | 69° |
| 2026-05-07 13:50 | 52.11366 | 1.84482 | 31302 ft | 449 kts | 69° |
| 2026-05-07 13:50 | 52.12529 | 1.89200 | 31598 ft | 451 kts | 69° |
| 2026-05-07 13:51 | 52.13702 | 1.93968 | 31886 ft | 453 kts | 69° |
| 2026-05-07 13:51 | 52.14870 | 1.98728 | 32350 ft | 451 kts | 69° |
| 2026-05-07 13:51 | 52.16022 | 2.03432 | 32676 ft | 451 kts | 69° |
| 2026-05-07 13:51 | 52.17179 | 2.08164 | 32999 ft | 452 kts | 69° |
| 2026-05-07 13:52 | 52.18330 | 2.12887 | 33310 ft | 452 kts | 69° |
| 2026-05-07 13:52 | 52.19487 | 2.17641 | 33627 ft | 453 kts | 69° |
| 2026-05-07 13:52 | 52.20645 | 2.22413 | 33930 ft | 453 kts | 69° |
| 2026-05-07 13:52 | 52.21794 | 2.27151 | 34244 ft | 453 kts | 69° |
| 2026-05-07 13:53 | 52.22944 | 2.31907 | 34537 ft | 453 kts | 69° |
| 2026-05-07 13:53 | 52.24099 | 2.36693 | 34819 ft | 453 kts | 69° |
| 2026-05-07 13:53 | 52.25230 | 2.41391 | 35089 ft | 453 kts | 69° |
| 2026-05-07 13:53 | 52.26384 | 2.46198 | 35321 ft | 453 kts | 69° |
| 2026-05-07 13:54 | 52.27519 | 2.50935 | 35556 ft | 453 kts | 69° |
| 2026-05-07 13:54 | 52.28666 | 2.55732 | 35784 ft | 453 kts | 69° |
| 2026-05-07 13:54 | 52.29804 | 2.60500 | 36048 ft | 451 kts | 69° |
| 2026-05-07 13:54 | 52.30905 | 2.65170 | 36286 ft | 450 kts | 71° |
| 2026-05-07 13:55 | 52.31918 | 2.70087 | 36445 ft | 451 kts | 73° |
| 2026-05-07 13:55 | 52.32806 | 2.74962 | 36556 ft | 454 kts | 75° |
| 2026-05-07 13:55 | 52.33651 | 2.79900 | 36819 ft | 452 kts | 76° |
| 2026-05-07 13:55 | 52.34480 | 2.84851 | 36973 ft | 453 kts | 75° |
| 2026-05-07 13:56 | 52.35311 | 2.89818 | 37045 ft | 455 kts | 75° |
| 2026-05-07 13:56 | 52.36988 | 2.99764 | 37077 ft | 456 kts | 75° |
| 2026-05-07 13:57 | 52.38655 | 3.09533 | 37076 ft | 453 kts | 75° |
| 2026-05-07 13:57 | 52.40342 | 3.19464 | 37084 ft | 455 kts | 76° |
| 2026-05-07 13:58 | 52.41874 | 3.29457 | 37088 ft | 456 kts | 77° |
| 2026-05-07 13:58 | 52.43301 | 3.39269 | 37084 ft | 455 kts | 77° |
| 2026-05-07 13:59 | 52.44746 | 3.49261 | 37087 ft | 456 kts | 77° |
| 2026-05-07 13:59 | 52.46206 | 3.59321 | 37082 ft | 451 kts | 77° |
| 2026-05-07 14:00 | 52.47655 | 3.69315 | 37078 ft | 452 kts | 78° |
| 2026-05-07 14:00 | 52.49094 | 3.79277 | 37076 ft | 452 kts | 77° |
| 2026-05-07 14:01 | 52.50532 | 3.89277 | 37078 ft | 448 kts | 77° |
| 2026-05-07 14:01 | 52.51958 | 3.99246 | 36940 ft | 444 kts | 77° |
| 2026-05-07 14:01 | 52.52592 | 4.03704 | 37048 ft | 445 kts | 77° |
| 2026-05-07 14:02 | 52.53288 | 4.08612 | 37075 ft | 449 kts | 77° |
| 2026-05-07 14:02 | 52.54699 | 4.18617 | 37080 ft | 450 kts | 77° |
| 2026-05-07 14:02 | 52.55392 | 4.23551 | 37271 ft | 452 kts | 77° |
| 2026-05-07 14:03 | 52.56090 | 4.28525 | 37130 ft | 448 kts | 77° |
| 2026-05-07 14:03 | 52.57473 | 4.38424 | 37085 ft | 446 kts | 77° |
| 2026-05-07 14:03 | 52.58157 | 4.43356 | 36905 ft | 443 kts | 77° |
| 2026-05-07 14:04 | 52.58817 | 4.48135 | 37224 ft | 447 kts | 77° |
| 2026-05-07 14:04 | 52.59505 | 4.53134 | 37112 ft | 448 kts | 77° |
| 2026-05-07 14:04 | 52.60184 | 4.58083 | 37082 ft | 444 kts | 77° |
| 2026-05-07 14:05 | 52.61534 | 4.67955 | 37071 ft | 445 kts | 78° |
| 2026-05-07 14:05 | 52.62878 | 4.77854 | 37066 ft | 446 kts | 78° |
| 2026-05-07 14:06 | 52.64201 | 4.87661 | 37064 ft | 446 kts | 78° |
| 2026-05-07 14:06 | 52.65542 | 4.97673 | 37063 ft | 446 kts | 78° |
| 2026-05-07 14:07 | 52.66860 | 5.07588 | 36746 ft | 446 kts | 78° |
| 2026-05-07 14:07 | 52.67520 | 5.12578 | 37083 ft | 447 kts | 78° |
| 2026-05-07 14:07 | 52.68175 | 5.17542 | 37068 ft | 447 kts | 78° |
| 2026-05-07 14:08 | 52.69478 | 5.27464 | 37064 ft | 445 kts | 77° |
| 2026-05-07 14:08 | 52.70777 | 5.37438 | 37063 ft | 446 kts | 78° |
| 2026-05-07 14:09 | 52.72066 | 5.47413 | 37064 ft | 447 kts | 78° |
| 2026-05-07 14:09 | 52.73356 | 5.57458 | 37068 ft | 447 kts | 78° |
| 2026-05-07 14:10 | 52.74620 | 5.67381 | 37073 ft | 448 kts | 78° |
| 2026-05-07 14:10 | 52.75901 | 5.77497 | 37078 ft | 448 kts | 78° |
| 2026-05-07 14:11 | 52.77157 | 5.87497 | 37077 ft | 449 kts | 78° |
| 2026-05-07 14:11 | 52.78414 | 5.97568 | 37079 ft | 449 kts | 78° |
| 2026-05-07 14:12 | 52.79663 | 6.07659 | 37074 ft | 449 kts | 78° |
| 2026-05-07 14:12 | 52.80902 | 6.17744 | 37064 ft | 450 kts | 78° |
| 2026-05-07 14:13 | 52.82137 | 6.27861 | 37053 ft | 450 kts | 78° |
| 2026-05-07 14:13 | 52.83365 | 6.38002 | 37048 ft | 451 kts | 78° |
| 2026-05-07 14:14 | 52.84582 | 6.48130 | 37049 ft | 452 kts | 78° |
| 2026-05-07 14:14 | 52.85792 | 6.58277 | 37049 ft | 451 kts | 78° |
| 2026-05-07 14:15 | 52.86992 | 6.68419 | 37048 ft | 452 kts | 79° |
| 2026-05-07 14:15 | 52.88187 | 6.78593 | 37047 ft | 452 kts | 79° |
| 2026-05-07 14:16 | 52.89380 | 6.88836 | 37049 ft | 453 kts | 79° |
| 2026-05-07 14:16 | 52.90561 | 6.99052 | 37050 ft | 453 kts | 79° |
| 2026-05-07 14:17 | 52.91728 | 7.09235 | 37052 ft | 452 kts | 79° |
| 2026-05-07 14:17 | 52.92889 | 7.19445 | 37047 ft | 452 kts | 79° |
| 2026-05-07 14:18 | 52.94041 | 7.29648 | 37050 ft | 452 kts | 79° |
| 2026-05-07 14:18 | 52.95141 | 7.39475 | 37052 ft | 452 kts | 79° |
| 2026-05-07 14:19 | 52.96283 | 7.49766 | 37054 ft | 453 kts | 79° |
| 2026-05-07 14:19 | 52.97403 | 7.59935 | 37053 ft | 453 kts | 79° |
| 2026-05-07 14:20 | 52.98521 | 7.70174 | 37047 ft | 453 kts | 80° |
| 2026-05-07 14:20 | 52.99725 | 7.80392 | 37051 ft | 453 kts | 78° |
| 2026-05-07 14:21 | 53.01095 | 7.90576 | 37046 ft | 452 kts | 77° |
| 2026-05-07 14:21 | 53.02480 | 8.00727 | 37047 ft | 453 kts | 77° |
| 2026-05-07 14:22 | 53.03841 | 8.10885 | 37052 ft | 454 kts | 77° |
| 2026-05-07 14:22 | 53.05191 | 8.21136 | 37046 ft | 454 kts | 77° |
| 2026-05-07 14:23 | 53.06519 | 8.31359 | 37044 ft | 454 kts | 77° |
| 2026-05-07 14:23 | 53.07833 | 8.41574 | 37050 ft | 453 kts | 77° |
| 2026-05-07 14:24 | 53.09141 | 8.51831 | 37045 ft | 453 kts | 78° |
| 2026-05-07 14:24 | 53.10426 | 8.61985 | 37058 ft | 453 kts | 77° |
| 2026-05-07 14:25 | 53.11713 | 8.72236 | 37055 ft | 452 kts | 78° |
| 2026-05-07 14:25 | 53.12983 | 8.82427 | 37051 ft | 452 kts | 78° |
| 2026-05-07 14:26 | 53.14261 | 8.92755 | 37056 ft | 453 kts | 78° |
| 2026-05-07 14:26 | 53.15512 | 9.02949 | 37054 ft | 453 kts | 78° |
| 2026-05-07 14:27 | 53.16763 | 9.13206 | 37051 ft | 453 kts | 78° |
| 2026-05-07 14:27 | 53.18003 | 9.23462 | 37052 ft | 452 kts | 78° |
| 2026-05-07 14:28 | 53.19231 | 9.33700 | 37043 ft | 453 kts | 78° |
| 2026-05-07 14:28 | 53.20421 | 9.43687 | 37057 ft | 454 kts | 78° |
| 2026-05-07 14:29 | 53.21632 | 9.53933 | 37056 ft | 453 kts | 78° |
| 2026-05-07 14:29 | 53.22841 | 9.64247 | 37049 ft | 454 kts | 78° |
| 2026-05-07 14:30 | 53.24043 | 9.74576 | 37048 ft | 453 kts | 79° |
| 2026-05-07 14:30 | 53.25230 | 9.84861 | 37053 ft | 454 kts | 79° |
| 2026-05-07 14:31 | 53.26409 | 9.95162 | 37053 ft | 454 kts | 79° |
| 2026-05-07 14:31 | 53.27586 | 10.05520 | 37058 ft | 454 kts | 79° |
| 2026-05-07 14:32 | 53.28739 | 10.15768 | 37051 ft | 454 kts | 79° |
| 2026-05-07 14:32 | 53.29895 | 10.26108 | 37060 ft | 454 kts | 79° |
| 2026-05-07 14:33 | 53.31049 | 10.36526 | 37062 ft | 454 kts | 79° |
| 2026-05-07 14:33 | 53.32182 | 10.46839 | 37056 ft | 454 kts | 79° |
| 2026-05-07 14:34 | 53.33313 | 10.57218 | 37057 ft | 454 kts | 79° |
| 2026-05-07 14:34 | 53.34432 | 10.67576 | 37058 ft | 454 kts | 80° |
| 2026-05-07 14:35 | 53.35540 | 10.77922 | 37065 ft | 455 kts | 80° |
| 2026-05-07 14:35 | 53.36645 | 10.88334 | 37052 ft | 455 kts | 80° |
| 2026-05-07 14:36 | 53.37740 | 10.98740 | 37062 ft | 455 kts | 81° |
| 2026-05-07 14:36 | 53.38827 | 11.09153 | 37058 ft | 456 kts | 81° |
| 2026-05-07 14:37 | 53.39898 | 11.19513 | 37069 ft | 455 kts | 81° |
| 2026-05-07 14:37 | 53.41497 | 11.35151 | 37060 ft | 456 kts | 81° |
| 2026-05-07 14:38 | 53.42506 | 11.45128 | 37052 ft | 456 kts | 81° |
| 2026-05-07 14:38 | 53.43706 | 11.55535 | 37055 ft | 455 kts | 78° |
| 2026-05-07 14:39 | 53.45073 | 11.65828 | 37053 ft | 455 kts | 78° |
| 2026-05-07 14:39 | 53.46452 | 11.76120 | 37048 ft | 456 kts | 78° |
| 2026-05-07 14:40 | 53.47816 | 11.86524 | 37052 ft | 457 kts | 78° |
| 2026-05-07 14:40 | 53.49149 | 11.96896 | 37044 ft | 458 kts | 78° |
| 2026-05-07 14:41 | 53.50472 | 12.07347 | 37051 ft | 458 kts | 78° |
| 2026-05-07 14:41 | 53.51780 | 12.17783 | 37050 ft | 458 kts | 78° |
| 2026-05-07 14:42 | 53.53072 | 12.28184 | 37050 ft | 458 kts | 78° |
| 2026-05-07 14:42 | 53.54357 | 12.38617 | 37049 ft | 457 kts | 79° |
| 2026-05-07 14:43 | 53.55636 | 12.49076 | 37050 ft | 458 kts | 79° |
| 2026-05-07 14:43 | 53.56910 | 12.59573 | 37053 ft | 459 kts | 79° |
| 2026-05-07 14:44 | 53.58169 | 12.70026 | 37054 ft | 459 kts | 79° |
| 2026-05-07 14:44 | 53.59421 | 12.80514 | 37056 ft | 459 kts | 79° |
| 2026-05-07 14:45 | 53.60663 | 12.90982 | 37052 ft | 458 kts | 79° |
| 2026-05-07 14:45 | 53.61897 | 13.01477 | 37052 ft | 459 kts | 79° |
| 2026-05-07 14:46 | 53.63119 | 13.11959 | 37050 ft | 459 kts | 80° |
| 2026-05-07 14:46 | 53.64336 | 13.22485 | 37052 ft | 459 kts | 80° |
| 2026-05-07 14:47 | 53.65545 | 13.33018 | 37053 ft | 460 kts | 80° |
| 2026-05-07 14:47 | 53.66747 | 13.43583 | 37052 ft | 460 kts | 80° |
| 2026-05-07 14:48 | 53.67941 | 13.54157 | 37053 ft | 461 kts | 80° |
| 2026-05-07 14:48 | 53.69117 | 13.64673 | 37057 ft | 460 kts | 80° |
| 2026-05-07 14:49 | 53.70293 | 13.75274 | 37057 ft | 461 kts | 81° |
| 2026-05-07 14:49 | 53.71455 | 13.85839 | 37060 ft | 460 kts | 81° |
| 2026-05-07 14:50 | 53.72607 | 13.96396 | 37067 ft | 461 kts | 81° |
| 2026-05-07 14:50 | 53.73758 | 14.07033 | 37070 ft | 462 kts | 81° |
| 2026-05-07 14:51 | 53.74897 | 14.17658 | 37068 ft | 462 kts | 81° |
| 2026-05-07 14:51 | 53.76030 | 14.28330 | 37066 ft | 462 kts | 82° |
| 2026-05-07 14:52 | 53.76970 | 14.38974 | 37069 ft | 462 kts | 84° |
| 2026-05-07 14:52 | 53.77765 | 14.49756 | 37068 ft | 462 kts | 84° |
| 2026-05-07 14:53 | 53.78534 | 14.60447 | 37056 ft | 462 kts | 84° |
| 2026-05-07 14:53 | 53.79317 | 14.71220 | 37052 ft | 462 kts | 85° |
| 2026-05-07 14:54 | 53.80101 | 14.81935 | 37045 ft | 463 kts | 85° |
| 2026-05-07 14:54 | 53.80885 | 14.92678 | 37055 ft | 463 kts | 85° |
| 2026-05-07 14:55 | 53.81666 | 15.03469 | 37047 ft | 464 kts | 85° |
| 2026-05-07 14:55 | 53.82441 | 15.14311 | 37046 ft | 463 kts | 85° |
| 2026-05-07 14:56 | 53.83201 | 15.25099 | 37040 ft | 464 kts | 85° |
| 2026-05-07 14:56 | 53.83951 | 15.35870 | 37039 ft | 463 kts | 85° |
| 2026-05-07 14:57 | 53.84659 | 15.46158 | 37035 ft | 463 kts | 85° |
| 2026-05-07 14:57 | 53.85393 | 15.56963 | 37032 ft | 464 kts | 85° |
| 2026-05-07 14:58 | 53.86117 | 15.67755 | 37032 ft | 464 kts | 86° |
| 2026-05-07 14:58 | 53.86479 | 15.73207 | 36842 ft | 460 kts | 86° |
| 2026-05-07 14:58 | 53.86830 | 15.78515 | 36454 ft | 457 kts | 86° |
| 2026-05-07 14:59 | 53.87176 | 15.83800 | 35910 ft | 458 kts | 87° |
| 2026-05-07 14:59 | 53.87526 | 15.89199 | 35233 ft | 462 kts | 87° |
| 2026-05-07 14:59 | 53.87873 | 15.94612 | 34495 ft | 467 kts | 87° |
| 2026-05-07 14:59 | 53.88220 | 16.00052 | 33682 ft | 472 kts | 87° |
| 2026-05-07 15:00 | 53.88570 | 16.05587 | 32856 ft | 475 kts | 86° |
| 2026-05-07 15:00 | 53.88918 | 16.11109 | 31997 ft | 478 kts | 86° |
| 2026-05-07 15:00 | 53.89266 | 16.16664 | 31222 ft | 479 kts | 86° |
| 2026-05-07 15:00 | 53.89615 | 16.22253 | 30531 ft | 475 kts | 86° |
| 2026-05-07 15:01 | 53.89955 | 16.27713 | 29840 ft | 462 kts | 86° |
| 2026-05-07 15:01 | 53.90284 | 16.33015 | 29201 ft | 447 kts | 86° |
| 2026-05-07 15:01 | 53.90601 | 16.38165 | 28597 ft | 433 kts | 86° |
| 2026-05-07 15:01 | 53.90906 | 16.43146 | 27998 ft | 421 kts | 86° |
| 2026-05-07 15:02 | 53.91242 | 16.47939 | 27417 ft | 410 kts | 83° |
| 2026-05-07 15:02 | 53.91798 | 16.52636 | 26848 ft | 408 kts | 75° |
| 2026-05-07 15:02 | 53.92811 | 16.57196 | 26273 ft | 425 kts | 64° |
| 2026-05-07 15:02 | 53.94230 | 16.61626 | 25649 ft | 425 kts | 59° |
| 2026-05-07 15:03 | 53.95773 | 16.65815 | 25045 ft | 414 kts | 58° |
| 2026-05-07 15:03 | 53.97327 | 16.69794 | 24462 ft | 402 kts | 57° |
| 2026-05-07 15:03 | 53.98865 | 16.73661 | 23890 ft | 390 kts | 56° |
| 2026-05-07 15:03 | 54.00347 | 16.77390 | 23346 ft | 387 kts | 56° |
| 2026-05-07 15:04 | 54.01887 | 16.81299 | 22761 ft | 403 kts | 57° |
| 2026-05-07 15:04 | 54.03428 | 16.85252 | 22160 ft | 403 kts | 57° |
| 2026-05-07 15:04 | 54.04956 | 16.89208 | 21565 ft | 399 kts | 57° |
| 2026-05-07 15:04 | 54.06446 | 16.93090 | 20989 ft | 396 kts | 57° |
| 2026-05-07 15:05 | 54.07919 | 16.97032 | 20400 ft | 392 kts | 60° |
| 2026-05-07 15:05 | 54.09166 | 17.01122 | 19807 ft | 388 kts | 69° |
| 2026-05-07 15:05 | 54.09947 | 17.05442 | 19235 ft | 383 kts | 80° |
| 2026-05-07 15:05 | 54.10359 | 17.09863 | 18684 ft | 378 kts | 85° |
| 2026-05-07 15:06 | 54.10624 | 17.14279 | 18118 ft | 374 kts | 86° |
| 2026-05-07 15:06 | 54.10834 | 17.18630 | 17578 ft | 371 kts | 87° |
| 2026-05-07 15:06 | 54.11039 | 17.23030 | 16986 ft | 368 kts | 87° |
| 2026-05-07 15:06 | 54.11246 | 17.27319 | 16459 ft | 365 kts | 87° |
| 2026-05-07 15:07 | 54.11464 | 17.31604 | 15893 ft | 363 kts | 86° |
| 2026-05-07 15:07 | 54.11687 | 17.35836 | 15343 ft | 360 kts | 86° |
| 2026-05-07 15:07 | 54.11910 | 17.40014 | 14799 ft | 358 kts | 86° |
| 2026-05-07 15:07 | 54.12136 | 17.44201 | 14302 ft | 353 kts | 86° |
| 2026-05-07 15:08 | 54.12358 | 17.48317 | 14058 ft | 342 kts | 86° |
| 2026-05-07 15:08 | 54.12579 | 17.52223 | 13907 ft | 329 kts | 83° |
| 2026-05-07 15:08 | 54.12913 | 17.56039 | 13535 ft | 325 kts | 82° |
| 2026-05-07 15:08 | 54.13287 | 17.59852 | 13091 ft | 323 kts | 81° |
| 2026-05-07 15:09 | 54.13673 | 17.63554 | 12662 ft | 321 kts | 80° |
| 2026-05-07 15:09 | 54.14069 | 17.67264 | 12248 ft | 318 kts | 81° |
| 2026-05-07 15:09 | 54.14464 | 17.70973 | 11851 ft | 315 kts | 81° |
| 2026-05-07 15:09 | 54.14846 | 17.74589 | 11421 ft | 313 kts | 81° |
| 2026-05-07 15:10 | 54.15228 | 17.78232 | 11036 ft | 309 kts | 80° |
| 2026-05-07 15:10 | 54.15601 | 17.81808 | 10642 ft | 307 kts | 80° |
| 2026-05-07 15:10 | 54.15966 | 17.85341 | 10237 ft | 304 kts | 80° |
| 2026-05-07 15:10 | 54.16328 | 17.88854 | 9941 ft | 297 kts | 80° |
| 2026-05-07 15:11 | 54.16678 | 17.92244 | 9735 ft | 289 kts | 80° |
| 2026-05-07 15:11 | 54.17023 | 17.95609 | 9293 ft | 290 kts | 80° |
| 2026-05-07 15:11 | 54.17368 | 17.98997 | 8942 ft | 288 kts | 79° |
| 2026-05-07 15:11 | 54.17705 | 18.02332 | 8589 ft | 285 kts | 79° |
| 2026-05-07 15:12 | 54.18038 | 18.05611 | 8217 ft | 283 kts | 79° |
| 2026-05-07 15:12 | 54.18371 | 18.08884 | 7877 ft | 280 kts | 79° |
| 2026-05-07 15:12 | 54.18707 | 18.12194 | 7455 ft | 280 kts | 79° |
| 2026-05-07 15:12 | 54.19033 | 18.15404 | 7114 ft | 278 kts | 78° |
| 2026-05-07 15:13 | 54.19358 | 18.18615 | 6917 ft | 269 kts | 78° |
| 2026-05-07 15:13 | 54.19672 | 18.21680 | 6918 ft | 260 kts | 78° |
| 2026-05-07 15:13 | 54.19988 | 18.24726 | 6922 ft | 261 kts | 78° |
| 2026-05-07 15:13 | 54.20298 | 18.27774 | 6921 ft | 260 kts | 78° |
| 2026-05-07 15:14 | 54.20606 | 18.30799 | 6917 ft | 260 kts | 78° |
| 2026-05-07 15:14 | 54.20913 | 18.33852 | 6942 ft | 260 kts | 78° |
| 2026-05-07 15:14 | 54.21217 | 18.36902 | 6924 ft | 261 kts | 78° |
| 2026-05-07 15:14 | 54.21517 | 18.39946 | 6921 ft | 261 kts | 79° |
| 2026-05-07 15:15 | 54.21814 | 18.42990 | 6926 ft | 261 kts | 78° |
| 2026-05-07 15:15 | 54.22111 | 18.46025 | 6932 ft | 261 kts | 78° |
| 2026-05-07 15:15 | 54.22415 | 18.49090 | 6932 ft | 261 kts | 78° |
| 2026-05-07 15:15 | 54.22717 | 18.52136 | 6931 ft | 261 kts | 78° |
| 2026-05-07 15:16 | 54.23019 | 18.55205 | 6928 ft | 262 kts | 78° |
| 2026-05-07 15:16 | 54.23312 | 18.58233 | 6930 ft | 261 kts | 78° |
| 2026-05-07 15:16 | 54.23608 | 18.61297 | 6933 ft | 257 kts | 78° |
| 2026-05-07 15:16 | 54.23867 | 18.64277 | 6931 ft | 249 kts | 83° |
| 2026-05-07 15:17 | 54.23776 | 18.67160 | 6932 ft | 244 kts | 104° |
| 2026-05-07 15:17 | 54.23159 | 18.69834 | 6936 ft | 245 kts | 114° |
| 2026-05-07 15:17 | 54.22409 | 18.72466 | 6937 ft | 245 kts | 114° |
| 2026-05-07 15:17 | 54.21696 | 18.75078 | 6936 ft | 244 kts | 112° |
| 2026-05-07 15:18 | 54.21016 | 18.77715 | 6935 ft | 245 kts | 111° |
| 2026-05-07 15:18 | 54.20345 | 18.80376 | 6929 ft | 244 kts | 111° |
| 2026-05-07 15:18 | 54.19666 | 18.83059 | 6934 ft | 245 kts | 111° |
| 2026-05-07 15:18 | 54.18996 | 18.85696 | 6934 ft | 245 kts | 111° |
| 2026-05-07 15:19 | 54.18320 | 18.88379 | 6927 ft | 244 kts | 111° |
| 2026-05-07 15:19 | 54.17650 | 18.91029 | 6930 ft | 245 kts | 112° |
| 2026-05-07 15:19 | 54.16974 | 18.93673 | 6941 ft | 245 kts | 112° |
| 2026-05-07 15:19 | 54.16293 | 18.96328 | 6938 ft | 245 kts | 111° |
| 2026-05-07 15:20 | 54.15626 | 18.98983 | 6930 ft | 244 kts | 108° |
| 2026-05-07 15:20 | 54.15235 | 19.01791 | 6922 ft | 241 kts | 87° |
| 2026-05-07 15:20 | 54.15664 | 19.04440 | 6926 ft | 229 kts | 56° |
| 2026-05-07 15:20 | 54.16695 | 19.06383 | 6813 ft | 220 kts | 36° |
| 2026-05-07 15:21 | 54.18005 | 19.07711 | 6626 ft | 215 kts | 24° |
| 2026-05-07 15:21 | 54.19387 | 19.08531 | 6399 ft | 212 kts | 8° |
| 2026-05-07 15:21 | 54.20857 | 19.08397 | 6166 ft | 212 kts | 343° |
| 2026-05-07 15:21 | 54.22150 | 19.07255 | 5939 ft | 212 kts | 322° |
| 2026-05-07 15:22 | 54.23109 | 19.05355 | 5712 ft | 214 kts | 301° |
| 2026-05-07 15:22 | 54.23724 | 19.03047 | 5476 ft | 214 kts | 295° |
| 2026-05-07 15:22 | 54.24263 | 19.00715 | 5244 ft | 213 kts | 295° |
| 2026-05-07 15:22 | 54.24829 | 18.98375 | 5015 ft | 211 kts | 297° |
| 2026-05-07 15:23 | 54.25415 | 18.96056 | 4845 ft | 216 kts | 297° |
| 2026-05-07 15:23 | 54.26016 | 18.93708 | 4459 ft | 222 kts | 297° |
| 2026-05-07 15:23 | 54.26638 | 18.91258 | 4146 ft | 223 kts | 297° |
| 2026-05-07 15:23 | 54.27248 | 18.88848 | 3895 ft | 222 kts | 298° |
| 2026-05-07 15:24 | 54.27861 | 18.86430 | 3651 ft | 220 kts | 298° |
| 2026-05-07 15:24 | 54.28458 | 18.84069 | 3533 ft | 213 kts | 298° |
| 2026-05-07 15:24 | 54.29029 | 18.81797 | 3487 ft | 202 kts | 298° |
| 2026-05-07 15:24 | 54.29560 | 18.79678 | 3453 ft | 188 kts | 298° |
| 2026-05-07 15:25 | 54.30050 | 18.77707 | 3384 ft | 177 kts | 299° |
| 2026-05-07 15:25 | 54.30537 | 18.75778 | 3335 ft | 175 kts | 299° |
| 2026-05-07 15:25 | 54.31020 | 18.73857 | 3287 ft | 176 kts | 299° |
| 2026-05-07 15:25 | 54.31500 | 18.71929 | 3153 ft | 178 kts | 299° |
| 2026-05-07 15:26 | 54.31986 | 18.70001 | 2983 ft | 176 kts | 298° |
| 2026-05-07 15:26 | 54.32409 | 18.68032 | 2849 ft | 179 kts | 295° |
| 2026-05-07 15:26 | 54.32847 | 18.66030 | 2541 ft | 181 kts | 297° |
| 2026-05-07 15:26 | 54.33334 | 18.64042 | 2278 ft | 177 kts | 298° |
| 2026-05-07 15:27 | 54.33811 | 18.62167 | 2050 ft | 171 kts | 299° |
| 2026-05-07 15:27 | 54.34289 | 18.60309 | 1838 ft | 168 kts | 299° |
| 2026-05-07 15:27 | 54.34692 | 18.58676 | 1674 ft | 158 kts | 298° |
| 2026-05-07 15:27 | 54.35144 | 18.56808 | 1389 ft | 150 kts | 300° |
| 2026-05-07 15:28 | 54.35571 | 18.55229 | 1279 ft | 148 kts | 302° |
| 2026-05-07 15:28 | 54.35994 | 18.53663 | 1211 ft | 142 kts | 298° |
| 2026-05-07 15:28 | 54.36380 | 18.52101 | 1013 ft | 142 kts | 299° |
| 2026-05-07 15:28 | 54.36778 | 18.50540 | 736 ft | 144 kts | 298° |
| 2026-05-07 15:29 | 54.37167 | 18.48982 | 512 ft | 140 kts | 297° |
| 2026-05-07 15:29 | 54.37526 | 18.47531 | 455 ft | 125 kts | 296° |
| 2026-05-07 15:29 | 54.37864 | 18.46182 | 813 ft | 155 kts | 298° |
| 2026-05-07 15:29 | 54.38377 | 18.44190 | 1411 ft | 174 kts | 296° |
| 2026-05-07 15:30 | 54.38767 | 18.42305 | 2043 ft | 175 kts | 286° |
| 2026-05-07 15:30 | 54.38631 | 18.40134 | 2565 ft | 197 kts | 247° |
| 2026-05-07 15:30 | 54.37679 | 18.38364 | 3064 ft | 215 kts | 212° |
| 2026-05-07 15:30 | 54.36304 | 18.37229 | 3554 ft | 231 kts | 204° |
| 2026-05-07 15:31 | 54.34772 | 18.36087 | 4048 ft | 245 kts | 204° |
| 2026-05-07 15:31 | 54.33210 | 18.34913 | 4533 ft | 247 kts | 203° |
| 2026-05-07 15:31 | 54.31594 | 18.34064 | 5012 ft | 248 kts | 183° |
| 2026-05-07 15:31 | 54.29924 | 18.34551 | 5478 ft | 245 kts | 152° |
| 2026-05-07 15:32 | 54.28639 | 18.36370 | 5752 ft | 240 kts | 123° |
| 2026-05-07 15:32 | 54.27824 | 18.38837 | 5734 ft | 240 kts | 113° |
| 2026-05-07 15:32 | 54.27137 | 18.41390 | 5594 ft | 230 kts | 110° |
| 2026-05-07 15:32 | 54.26515 | 18.43793 | 5465 ft | 216 kts | 110° |
| 2026-05-07 15:33 | 54.25903 | 18.46139 | 5346 ft | 215 kts | 110° |
| 2026-05-07 15:33 | 54.25285 | 18.48482 | 5218 ft | 214 kts | 110° |
| 2026-05-07 15:33 | 54.24678 | 18.50768 | 5080 ft | 214 kts | 110° |
| 2026-05-07 15:33 | 54.24256 | 18.53177 | 4879 ft | 210 kts | 95° |
| 2026-05-07 15:34 | 54.24093 | 18.55646 | 4672 ft | 207 kts | 91° |
| 2026-05-07 15:34 | 54.23956 | 18.58059 | 4462 ft | 203 kts | 91° |
| 2026-05-07 15:34 | 54.23814 | 18.60420 | 4254 ft | 194 kts | 91° |
| 2026-05-07 15:34 | 54.23671 | 18.62661 | 4049 ft | 187 kts | 91° |
| 2026-05-07 15:35 | 54.23531 | 18.64787 | 3890 ft | 177 kts | 91° |
| 2026-05-07 15:35 | 54.23387 | 18.66848 | 3783 ft | 169 kts | 92° |
| 2026-05-07 15:35 | 54.23247 | 18.68821 | 3696 ft | 169 kts | 92° |
| 2026-05-07 15:35 | 54.23102 | 18.70816 | 3591 ft | 168 kts | 92° |
| 2026-05-07 15:36 | 54.22997 | 18.72785 | 3487 ft | 163 kts | 79° |
| 2026-05-07 15:36 | 54.23445 | 18.74409 | 3381 ft | 151 kts | 37° |
| 2026-05-07 15:36 | 54.24339 | 18.75288 | 3286 ft | 147 kts | 25° |
| 2026-05-07 15:36 | 54.25279 | 18.75949 | 3187 ft | 144 kts | 21° |
| 2026-05-07 15:37 | 54.26218 | 18.76548 | 3139 ft | 145 kts | 20° |
| 2026-05-07 15:37 | 54.27162 | 18.77149 | 3089 ft | 145 kts | 21° |
| 2026-05-07 15:37 | 54.28104 | 18.77749 | 3042 ft | 149 kts | 19° |
| 2026-05-07 15:37 | 54.29197 | 18.77701 | 2922 ft | 169 kts | 334° |
| 2026-05-07 15:38 | 54.29956 | 18.76075 | 2956 ft | 185 kts | 298° |
| 2026-05-07 15:38 | 54.30456 | 18.74098 | 2945 ft | 176 kts | 302° |
| 2026-05-07 15:38 | 54.31059 | 18.72292 | 2942 ft | 173 kts | 308° |
| 2026-05-07 15:38 | 54.31706 | 18.70551 | 2943 ft | 173 kts | 309° |
| 2026-05-07 15:39 | 54.32314 | 18.68793 | 2936 ft | 175 kts | 301° |
| 2026-05-07 15:39 | 54.32745 | 18.66818 | 2711 ft | 181 kts | 294° |
| 2026-05-07 15:39 | 54.33171 | 18.64777 | 2386 ft | 184 kts | 297° |
| 2026-05-07 15:39 | 54.33640 | 18.62829 | 2127 ft | 168 kts | 299° |
| 2026-05-07 15:40 | 54.34095 | 18.61049 | 1912 ft | 162 kts | 300° |
| 2026-05-07 15:40 | 54.34540 | 18.59319 | 1718 ft | 153 kts | 300° |
| 2026-05-07 15:40 | 54.34959 | 18.57694 | 1401 ft | 152 kts | 300° |
| 2026-05-07 15:40 | 54.35365 | 18.56127 | 1319 ft | 140 kts | 298° |
| 2026-05-07 15:41 | 54.35729 | 18.54602 | 1167 ft | 139 kts | 298° |
| 2026-05-07 15:41 | 54.36121 | 18.53142 | 1063 ft | 136 kts | 300° |
| 2026-05-07 15:41 | 54.36501 | 18.51610 | 878 ft | 141 kts | 297° |
| 2026-05-07 15:41 | 54.36894 | 18.50082 | 653 ft | 141 kts | 297° |
| 2026-05-07 15:42 | 54.37273 | 18.48560 | 479 ft | 133 kts | 297° |
| 2026-05-07 15:42 | 54.37542 | 18.47518 | 453 ft | 53 kts | 290° |
| 2026-05-07 15:42 | 54.37660 | 18.47023 | 449 ft | 25 kts | 300° |
| 2026-05-07 15:42 | 54.37758 | 18.46827 | 449 ft | 21 kts | 318° |
| 2026-05-07 15:43 | 54.37843 | 18.46713 | 449 ft | 17 kts | 323° |
| 2026-05-07 15:43 | 54.37888 | 18.46656 | 449 ft | 7 kts | 324° |
| 2026-05-07 15:43 | 54.37913 | 18.46624 | 449 ft | 5 kts | 321° |
| 2026-05-07 15:43 | 54.37951 | 18.46575 | 449 ft | 10 kts | 345° |
| 2026-05-07 15:44 | 54.38003 | 18.46593 | 449 ft | 10 kts | 26° |
| 2026-05-07 15:44 | 54.38051 | 18.46611 | 449 ft | 8 kts | 343° |
| 2026-05-07 15:44 | 54.38078 | 18.46590 | 449 ft | 5 kts | 2° |
| 2026-05-07 15:44 | 54.38099 | 18.46600 | 450 ft | 3 kts | 23° |
| 2026-05-07 15:45 | 54.38108 | 18.46606 | 450 ft | 1 kts | 24° |
| 2026-05-07 15:45 | 54.38114 | 18.46611 | 450 ft | 0 kts | 24° |
| 2026-05-07 15:45 | 54.38116 | 18.46612 | 450 ft | 0 kts | 24° |
| 2026-05-07 15:45 | 54.38117 | 18.46612 | 450 ft | 0 kts | 24° |